Time;durP1;ratioP1;P1;durP2;ratioP2;P2;SDS_P1;SDS_P2;PMS_P1;PMS_P2;Temp;Humidity;BMP_temperature;BMP_pressure;BME280_temperature;BME280_humidity;BME280_pressure;Samples;Min_cycle;Max_cycle;Signal;HPM_P1;HPM_P2
2021/12/29 00:00:44;;;;;;;5.45;2.67;;;9.10;99.90;;;;;;5083340;28;20052;-64
2021/12/29 00:03:10;;;;;;;7.53;2.75;;;8.90;99.90;;;;;;5085548;28;20024;-64
2021/12/29 00:05:36;;;;;;;8.05;3.30;;;9.00;99.90;;;;;;5075014;28;20109;-64
2021/12/29 00:08:03;;;;;;;9.07;3.13;;;8.90;99.90;;;;;;5074747;28;20016;-63
2021/12/29 00:10:29;;;;;;;8.73;3.17;;;8.80;99.90;;;;;;5074290;28;20119;-64
2021/12/29 00:12:55;;;;;;;4.13;1.88;;;8.90;99.90;;;;;;5078738;28;20543;-64
2021/12/29 00:15:27;;;;;;;2.35;1.55;;;9.30;99.90;;;;;;5073343;28;20006;-63
2021/12/29 00:17:55;;;;;;;4.07;1.98;;;8.90;99.90;;;;;;5077860;28;20072;-64
2021/12/29 00:20:28;;;;;;;2.20;1.20;;;8.80;99.90;;;;;;5076717;28;20404;-63
2021/12/29 00:22:59;;;;;;;3.60;1.83;;;8.80;99.90;;;;;;5076143;28;20527;-63
2021/12/29 00:25:25;;;;;;;5.63;2.30;;;8.80;99.90;;;;;;5069761;28;20035;-63
2021/12/29 00:27:54;;;;;;;2.63;1.75;;;8.80;99.90;;;;;;5070646;28;20451;-63
2021/12/29 00:30:20;;;;;;;9.43;2.95;;;8.80;99.90;;;;;;5075465;28;20023;-63
2021/12/29 00:32:46;;;;;;;7.50;3.65;;;8.80;99.90;;;;;;5076452;28;20021;-66
2021/12/29 00:35:14;;;;;;;5.20;2.63;;;8.80;99.90;;;;;;5078105;28;20028;-63
2021/12/29 00:37:40;;;;;;;8.32;3.47;;;9.10;99.90;;;;;;5076686;28;20017;-63
2021/12/29 00:40:06;;;;;;;6.47;1.95;;;8.80;99.90;;;;;;5078269;28;20020;-65
2021/12/29 00:42:32;;;;;;;4.30;2.30;;;8.80;99.90;;;;;;5078675;28;20389;-64
2021/12/29 00:44:57;;;;;;;6.38;2.50;;;9.10;99.90;;;;;;5073790;28;20024;-63
2021/12/29 00:47:23;;;;;;;5.18;2.15;;;8.50;99.90;;;;;;5080623;28;20135;-64
2021/12/29 00:49:49;;;;;;;12.55;5.93;;;8.80;99.90;;;;;;5073275;28;20025;-65
2021/12/29 00:52:15;;;;;;;9.20;3.97;;;8.90;99.90;;;;;;5078494;28;20399;-64
2021/12/29 00:54:43;;;;;;;10.93;5.13;;;8.80;99.90;;;;;;5075422;28;20072;-63
2021/12/29 00:57:09;;;;;;;10.23;5.28;;;8.80;99.90;;;;;;5075145;28;20017;-64
2021/12/29 00:59:34;;;;;;;13.43;5.32;;;8.80;99.90;;;;;;5071108;28;20488;-64
2021/12/29 01:02:00;;;;;;;10.60;3.85;;;9.10;99.90;;;;;;5074474;28;20447;-65
2021/12/29 01:04:26;;;;;;;19.10;9.90;;;8.70;99.90;;;;;;5072060;28;20041;-62
2021/12/29 01:06:52;;;;;;;18.27;6.45;;;8.80;99.90;;;;;;5073341;28;20361;-64
2021/12/29 09:35:24;;;;;;;14.15;4.50;;;8.90;99.90;;;;;;5448593;22;20055;-91
2021/12/29 09:37:53;;;;;;;17.02;5.38;;;8.80;99.90;;;;;;5077763;28;20033;-91
2021/12/29 09:40:21;;;;;;;17.45;6.53;;;8.70;99.90;;;;;;5091874;22;20814;-61
2021/12/29 09:42:48;;;;;;;18.92;4.07;;;8.80;99.90;;;;;;5090489;28;20031;-61
2021/12/29 09:45:14;;;;;;;14.38;5.70;;;8.80;99.90;;;;;;5094049;28;20367;-61
2021/12/29 09:47:40;;;;;;;18.08;5.97;;;8.70;99.90;;;;;;5094562;28;20024;-61
2021/12/29 09:50:12;;;;;;;11.45;4.43;;;8.80;99.90;;;;;;5091701;28;20038;-60
2021/12/29 09:52:38;;;;;;;9.10;3.80;;;8.80;99.90;;;;;;5095389;28;20024;-61
2021/12/29 09:55:09;;;;;;;14.82;5.68;;;8.70;99.90;;;;;;5097572;28;20036;-61
2021/12/29 09:57:36;;;;;;;16.52;5.72;;;8.90;99.90;;;;;;5095050;28;20084;-60
2021/12/29 10:00:08;;;;;;;14.98;5.88;;;9.10;99.90;;;;;;5089388;28;20028;-61
2021/12/29 10:02:34;;;;;;;15.48;5.85;;;9.00;99.90;;;;;;5097527;28;20096;-61
2021/12/29 10:04:59;;;;;;;17.92;6.00;;;9.00;99.90;;;;;;5097571;28;20059;-61
2021/12/29 10:07:26;;;;;;;25.65;5.40;;;9.20;99.90;;;;;;5100315;28;20031;-61
2021/12/29 10:09:53;;;;;;;18.30;6.85;;;9.20;99.90;;;;;;5094878;28;20031;-61
2021/12/29 10:12:21;;;;;;;18.65;7.80;;;9.20;99.90;;;;;;5101452;28;20051;-61
2021/12/29 10:14:54;;;;;;;15.23;5.47;;;9.10;99.90;;;;;;5093280;28;20043;-61
2021/12/29 10:17:24;;;;;;;14.60;5.05;;;9.00;99.90;;;;;;5069578;28;20078;-61
2021/12/29 10:20:08;;;;;;;12.93;5.38;;;9.20;99.90;;;;;;5080574;28;20028;-61
2021/12/29 10:22:34;;;;;;;16.98;6.80;;;9.20;99.90;;;;;;5072039;28;20127;-61
2021/12/29 10:25:10;;;;;;;21.48;6.55;;;9.20;99.90;;;;;;5089041;28;20127;-61
2021/12/29 10:27:38;;;;;;;12.68;5.95;;;9.20;99.90;;;;;;5076448;28;20053;-61
2021/12/29 10:30:25;;;;;;;6.80;3.00;;;9.20;99.90;;;;;;5090006;28;20475;-61
2021/12/29 10:32:52;;;;;;;10.20;4.97;;;9.20;99.90;;;;;;5088283;28;20032;-61
2021/12/29 10:35:33;;;;;;;11.23;4.95;;;9.20;99.90;;;;;;5088665;28;20016;-61
2021/12/29 10:38:14;;;;;;;9.70;5.18;;;9.20;99.90;;;;;;5093440;28;20035;-61
2021/12/29 10:40:40;;;;;;;14.88;5.68;;;9.50;99.90;;;;;;5085672;28;20465;-61
2021/12/29 10:43:06;;;;;;;14.30;5.57;;;9.40;99.90;;;;;;5086238;28;20032;-61
2021/12/29 10:45:35;;;;;;;10.07;5.55;;;9.60;99.90;;;;;;5087473;28;20099;-61
2021/12/29 10:48:02;;;;;;;13.88;5.68;;;9.60;99.90;;;;;;5085711;28;20030;-61
2021/12/29 10:50:28;;;;;;;13.43;5.15;;;9.60;99.90;;;;;;5107691;22;21112;-90
2021/12/29 10:52:57;;;;;;;13.75;5.45;;;9.60;99.90;;;;;;5103810;28;20393;-88
2021/12/29 10:55:43;;;;;;;20.15;6.60;;;9.70;99.90;;;;;;5100412;28;20030;-89
2021/12/29 10:58:14;;;;;;;12.50;5.22;;;10.00;99.90;;;;;;5100785;28;20038;-89
2021/12/29 11:00:42;;;;;;;11.95;5.43;;;10.00;99.90;;;;;;5102251;28;20062;-89
2021/12/29 11:03:10;;;;;;;14.13;4.95;;;10.10;99.90;;;;;;5101160;28;20046;-89
2021/12/29 11:05:38;;;;;;;16.80;5.82;;;10.60;99.90;;;;;;5100144;28;20400;-89
2021/12/29 11:08:09;;;;;;;16.20;6.38;;;10.00;99.90;;;;;;5114703;28;20019;-88
2021/12/29 11:10:35;;;;;;;10.40;3.88;;;10.10;99.90;;;;;;5105868;27;20131;-89
2021/12/29 11:13:00;;;;;;;12.65;5.68;;;10.80;99.90;;;;;;5106524;28;20434;-89
2021/12/29 11:15:30;;;;;;;10.88;4.88;;;11.40;99.90;;;;;;5103456;27;20024;-88
2021/12/29 11:18:04;;;;;;;10.30;4.10;;;10.10;99.90;;;;;;5102753;27;20105;-89
2021/12/29 11:20:31;;;;;;;21.05;6.38;;;10.20;99.90;;;;;;5104091;27;20024;-90
2021/12/29 11:23:04;;;;;;;14.32;5.18;;;10.30;99.90;;;;;;5112748;27;20027;-90
2021/12/29 11:25:31;;;;;;;12.48;4.78;;;10.20;99.90;;;;;;5120326;27;20118;-90
2021/12/29 11:27:57;;;;;;;10.40;3.38;;;10.90;99.90;;;;;;5104443;27;20034;-91
2021/12/29 11:30:23;;;;;;;6.32;3.20;;;11.50;99.90;;;;;;5104553;27;20027;-89
2021/12/29 11:32:49;;;;;;;7.80;3.40;;;11.50;99.90;;;;;;5105236;27;20027;-90
2021/12/29 11:35:16;;;;;;;9.93;3.53;;;10.20;99.90;;;;;;5101726;28;20133;-88
2021/12/29 11:37:49;;;;;;;26.98;5.32;;;9.60;99.90;;;;;;5100956;27;20023;-89
2021/12/29 11:40:24;;;;;;;15.70;5.30;;;10.20;99.90;;;;;;5100948;27;20043;-90
2021/12/29 11:42:51;;;;;;;9.93;4.32;;;10.20;99.90;;;;;;5098344;27;20566;-92
2021/12/29 11:45:17;;;;;;;16.27;4.53;;;9.70;99.90;;;;;;5090944;28;20026;-88
2021/12/29 11:47:44;;;;;;;14.88;4.43;;;10.50;99.90;;;;;;5088701;27;20055;-88
2021/12/29 11:50:12;;;;;;;8.77;2.92;;;10.80;99.90;;;;;;5093757;28;20054;-88
2021/12/29 11:53:04;;;;;;;11.15;3.10;;;10.50;99.90;;;;;;5089059;28;20120;-88
2021/12/29 11:55:40;;;;;;;7.78;3.50;;;10.00;99.90;;;;;;5093820;28;20031;-89
2021/12/29 11:58:11;;;;;;;9.75;4.05;;;10.00;99.90;;;;;;5100400;28;20030;-91
2021/12/29 12:00:37;;;;;;;9.60;3.70;;;9.90;99.90;;;;;;5092472;28;20104;-88
2021/12/29 12:03:15;;;;;;;9.45;3.30;;;9.80;99.90;;;;;;5090789;28;20115;-90
2021/12/29 12:05:49;;;;;;;5.88;2.40;;;9.80;99.90;;;;;;5105695;27;20440;-91
2021/12/29 12:08:24;;;;;;;7.80;3.35;;;9.90;99.90;;;;;;5106602;28;20098;-90
2021/12/29 12:10:51;;;;;;;7.25;2.95;;;9.90;99.90;;;;;;5112778;27;20023;-91
2021/12/29 12:13:27;;;;;;;10.77;3.47;;;10.80;99.90;;;;;;5108740;28;20035;-91
2021/12/29 12:16:15;;;;;;;7.90;2.70;;;10.00;99.90;;;;;;5095397;28;20012;-90
2021/12/29 12:18:56;;;;;;;11.52;3.75;;;9.80;99.90;;;;;;5090715;28;20454;-90
2021/12/29 12:21:35;;;;;;;8.07;2.63;;;9.90;99.90;;;;;;5092098;28;20055;-90
2021/12/29 12:24:17;;;;;;;9.18;3.60;;;9.90;99.90;;;;;;5107711;28;20028;-90
2021/12/29 12:26:58;;;;;;;5.95;2.40;;;10.00;99.90;;;;;;5085143;28;20027;-90
2021/12/29 12:29:26;;;;;;;12.25;3.35;;;10.10;99.90;;;;;;5095341;28;20024;-90
2021/12/29 12:32:00;;;;;;;6.03;1.95;;;10.10;99.90;;;;;;5093637;27;20068;-90
2021/12/29 12:34:26;;;;;;;8.43;3.30;;;10.50;99.90;;;;;;5081419;28;20082;-91
2021/12/29 12:36:52;;;;;;;6.85;2.60;;;10.80;99.90;;;;;;5088870;28;20016;-90
2021/12/29 12:39:21;;;;;;;5.22;2.15;;;9.90;99.90;;;;;;5094699;27;20071;-90
2021/12/29 12:41:50;;;;;;;11.65;2.63;;;10.00;99.90;;;;;;5085272;28;20023;-90
2021/12/29 12:44:19;;;;;;;9.00;3.05;;;10.20;99.90;;;;;;5111479;27;20031;-90
2021/12/29 12:46:51;;;;;;;5.85;2.47;;;9.90;99.90;;;;;;5088375;27;20051;-90
2021/12/29 12:49:20;;;;;;;7.65;3.15;;;9.90;99.90;;;;;;5086733;28;20024;-90
2021/12/29 12:52:10;;;;;;;6.45;2.72;;;9.80;99.90;;;;;;5076696;28;20059;-89
2021/12/29 12:54:50;;;;;;;;;;;9.80;99.90;;;;;;5071329;28;20834;-89
2021/12/29 12:57:31;;;;;;;9.15;3.20;;;9.70;99.90;;;;;;5089638;28;19950;-89
2021/12/29 13:00:16;;;;;;;6.80;2.70;;;9.70;99.90;;;;;;5080703;28;20077;-90
2021/12/29 13:03:04;;;;;;;7.00;3.22;;;9.60;99.90;;;;;;5075192;28;20031;-90
2021/12/29 13:05:38;;;;;;;9.02;2.80;;;9.60;99.90;;;;;;5074039;28;20028;-90
2021/12/29 13:08:06;;;;;;;8.35;3.00;;;9.60;99.90;;;;;;5068345;28;20103;-90
2021/12/29 13:10:39;;;;;;;4.15;1.98;;;9.60;99.90;;;;;;5072332;28;20071;-90
2021/12/29 13:13:11;;;;;;;12.88;3.22;;;9.60;99.90;;;;;;5067058;28;20648;-90
2021/12/29 13:15:38;;;;;;;10.45;2.92;;;9.60;99.90;;;;;;5086302;28;20499;-90
2021/12/29 13:18:05;;;;;;;5.90;2.40;;;9.50;99.90;;;;;;5068569;28;20035;-91
2021/12/29 13:20:30;;;;;;;21.08;3.33;;;9.30;99.90;;;;;;5072641;28;20020;-89
2021/12/29 13:22:56;;;;;;;8.07;2.88;;;9.40;99.90;;;;;;5071747;28;20051;-91
2021/12/29 13:25:26;;;;;;;8.60;3.10;;;9.40;99.90;;;;;;5072059;28;20473;-88
2021/12/29 13:28:02;;;;;;;4.03;1.63;;;9.20;99.90;;;;;;5073643;28;20507;-88
2021/12/29 13:30:30;;;;;;;9.20;3.70;;;9.30;99.90;;;;;;5065833;28;20028;-89
2021/12/29 13:32:58;;;;;;;10.70;2.60;;;9.40;99.90;;;;;;5073310;28;20111;-89
2021/12/29 13:35:27;;;;;;;5.45;2.78;;;9.40;99.90;;;;;;5070680;28;20035;-89
2021/12/29 13:37:56;;;;;;;8.88;3.92;;;9.30;99.90;;;;;;5068780;28;20075;-89
2021/12/29 13:40:41;;;;;;;14.50;3.50;;;10.10;99.90;;;;;;5074732;28;20016;-89
2021/12/29 13:43:29;;;;;;;7.72;2.42;;;9.30;99.90;;;;;;5068686;28;20054;-89
2021/12/29 13:45:56;;;;;;;6.63;2.63;;;9.40;99.90;;;;;;5067316;28;20052;-91
2021/12/29 13:48:28;;;;;;;5.60;2.72;;;9.40;99.90;;;;;;5073793;28;20487;-92
2021/12/29 13:51:05;;;;;;;11.95;2.88;;;9.30;99.90;;;;;;5068005;28;20314;-91
2021/12/29 13:53:32;;;;;;;6.03;2.72;;;10.10;99.90;;;;;;5071166;28;20047;-89
2021/12/29 13:56:10;;;;;;;6.38;3.00;;;9.30;99.90;;;;;;5067829;28;20592;-91
2021/12/29 13:58:36;;;;;;;8.00;2.63;;;10.90;99.90;;;;;;5068931;28;20021;-89
2021/12/29 14:01:03;;;;;;;8.38;2.97;;;9.30;99.90;;;;;;5070046;28;20074;-90
2021/12/29 14:03:31;;;;;;;5.95;2.88;;;9.30;99.90;;;;;;5085674;28;20487;-91
2021/12/29 14:06:03;;;;;;;11.57;2.80;;;9.30;99.90;;;;;;5067301;28;20135;-90
2021/12/29 14:08:31;;;;;;;9.73;3.65;;;9.30;99.90;;;;;;5071279;28;20042;-90
2021/12/29 14:11:02;;;;;;;2.85;1.73;;;9.30;99.90;;;;;;5069692;28;20040;-93
2021/12/29 14:13:30;;;;;;;11.45;3.67;;;9.30;99.90;;;;;;5067355;28;20028;-89
2021/12/29 14:16:08;;;;;;;8.18;2.40;;;9.30;99.90;;;;;;5066232;28;20087;-89
2021/12/29 14:18:41;;;;;;;8.05;3.22;;;9.30;99.90;;;;;;5085174;28;20431;-92
2021/12/29 14:21:17;;;;;;;8.77;3.20;;;9.10;99.90;;;;;;5063996;28;20052;-91
2021/12/29 14:23:49;;;;;;;7.90;3.42;;;9.30;99.90;;;;;;5061516;28;20522;-91
2021/12/29 14:26:15;;;;;;;6.75;2.50;;;10.80;99.90;;;;;;5064923;28;20128;-89
2021/12/29 14:28:59;;;;;;;7.97;2.80;;;9.30;99.90;;;;;;5073264;28;20669;-91
2021/12/29 14:31:38;;;;;;;8.95;3.13;;;9.30;99.90;;;;;;5070605;28;20028;-91
2021/12/29 14:34:04;;;;;;;10.98;3.22;;;9.20;99.90;;;;;;5064791;28;20028;-92
2021/12/29 14:36:35;;;;;;;3.35;1.70;;;9.20;99.90;;;;;;5070262;28;20194;-91
2021/12/29 14:39:07;;;;;;;7.30;3.03;;;9.20;99.90;;;;;;5069481;28;20017;-92
2021/12/29 14:41:35;;;;;;;9.13;3.00;;;9.20;99.90;;;;;;5062545;28;20023;-91
2021/12/29 14:44:06;;;;;;;13.00;3.83;;;9.10;99.90;;;;;;5057518;28;20064;-92
2021/12/29 14:46:33;;;;;;;5.15;2.22;;;9.10;99.90;;;;;;5069746;28;20668;-92
2021/12/29 14:49:03;;;;;;;6.63;2.67;;;9.00;99.90;;;;;;5062854;28;20117;-92
2021/12/29 14:51:30;;;;;;;9.57;2.60;;;9.10;99.90;;;;;;5077059;28;20052;-92
2021/12/29 14:53:57;;;;;;;7.03;2.50;;;9.00;99.90;;;;;;5075453;28;20050;-92
2021/12/29 14:56:26;;;;;;;4.75;2.05;;;9.00;99.90;;;;;;5074193;28;20028;-91
2021/12/29 14:58:52;;;;;;;8.77;3.70;;;9.00;99.90;;;;;;5073565;28;20091;-90
2021/12/29 15:01:23;;;;;;;7.15;2.25;;;8.90;99.90;;;;;;5065146;28;20036;-93
2021/12/29 15:03:59;;;;;;;5.70;2.05;;;8.90;99.90;;;;;;5056140;28;20400;-92
2021/12/29 15:06:32;;;;;;;7.53;2.38;;;8.90;99.90;;;;;;5056634;28;20029;-91
2021/12/29 15:09:00;;;;;;;7.15;2.17;;;8.90;99.90;;;;;;5069210;28;20029;-91
2021/12/29 15:11:26;;;;;;;5.47;2.13;;;8.90;99.90;;;;;;5061020;28;20020;-91
2021/12/29 15:13:53;;;;;;;6.15;2.35;;;;;;;;;;5072309;28;20417;-92
2021/12/29 15:16:19;;;;;;;2.95;1.35;;;8.90;99.90;;;;;;5071980;28;20821;-92
2021/12/29 15:18:47;;;;;;;7.47;2.08;;;8.90;99.90;;;;;;5072283;28;20029;-90
2021/12/29 15:21:16;;;;;;;5.25;2.30;;;8.90;99.90;;;;;;5072014;28;20016;-92
2021/12/29 15:23:45;;;;;;;4.10;2.08;;;8.90;99.90;;;;;;5072428;28;20082;-92
2021/12/29 15:26:19;;;;;;;5.97;1.80;;;8.80;99.90;;;;;;5073406;28;20029;-92
2021/12/29 15:28:45;;;;;;;11.75;3.05;;;8.80;99.90;;;;;;5073499;28;20024;-93
2021/12/29 15:31:13;;;;;;;3.13;1.13;;;8.60;99.90;;;;;;5077392;28;20032;-91
2021/12/29 15:33:40;;;;;;;3.30;1.40;;;8.80;99.90;;;;;;5069959;28;20085;-92
2021/12/29 15:36:10;;;;;;;7.70;3.00;;;8.80;99.90;;;;;;5079163;28;20016;-90
2021/12/29 15:38:35;;;;;;;6.88;1.50;;;8.70;99.90;;;;;;5076242;28;20435;-89
2021/12/29 15:41:03;;;;;;;10.88;2.75;;;8.70;99.90;;;;;;5071613;28;20024;-92
2021/12/29 15:43:33;;;;;;;5.13;2.13;;;8.70;99.90;;;;;;5066353;28;20024;-92
2021/12/29 15:45:59;;;;;;;4.72;1.98;;;8.70;99.90;;;;;;5055446;28;20054;-91
2021/12/29 15:48:25;;;;;;;4.13;1.42;;;8.60;99.90;;;;;;5048962;28;20051;-91
2021/12/29 15:50:52;;;;;;;5.65;1.88;;;8.60;99.90;;;;;;5066602;28;20056;-91
2021/12/29 15:53:17;;;;;;;6.07;1.77;;;8.60;99.90;;;;;;5064669;28;20021;-91
2021/12/29 15:55:45;;;;;;;6.38;2.45;;;8.60;99.90;;;;;;5062689;28;20491;-91
2021/12/29 15:58:11;;;;;;;5.28;1.92;;;8.50;99.90;;;;;;5063854;28;20710;-91
2021/12/29 16:00:40;;;;;;;0.77;0.70;;;9.00;99.90;;;;;;5066307;28;20021;-92
2021/12/29 16:03:07;;;;;;;2.70;1.42;;;8.60;99.90;;;;;;5064506;28;20868;-91
2021/12/29 16:05:34;;;;;;;2.13;1.17;;;8.60;99.90;;;;;;5068646;28;20094;-91
2021/12/29 16:08:00;;;;;;;8.43;1.77;;;8.60;99.90;;;;;;5067054;28;20031;-91
2021/12/29 16:10:26;;;;;;;5.28;2.50;;;8.70;99.90;;;;;;5069589;28;20107;-91
2021/12/29 16:12:53;;;;;;;5.65;1.90;;;;;;;;;;5066658;28;20125;-91
2021/12/29 16:15:19;;;;;;;3.13;1.58;;;8.60;99.90;;;;;;5060135;28;20762;-92
2021/12/29 16:17:46;;;;;;;2.95;1.20;;;8.50;99.90;;;;;;5065245;28;20025;-91
2021/12/29 16:20:13;;;;;;;3.28;1.40;;;8.60;99.90;;;;;;5049839;28;20419;-92
2021/12/29 16:22:39;;;;;;;4.00;1.73;;;8.50;99.90;;;;;;5046717;28;20131;-91
2021/12/29 16:25:06;;;;;;;6.55;2.55;;;8.50;99.90;;;;;;5068410;28;20035;-92
2021/12/29 16:27:32;;;;;;;5.20;1.55;;;8.50;99.90;;;;;;5071550;28;20037;-92
2021/12/29 16:29:58;;;;;;;5.82;2.13;;;8.60;99.90;;;;;;5070114;28;20028;-92
2021/12/29 16:32:26;;;;;;;5.45;1.75;;;8.60;99.90;;;;;;5067191;28;20051;-91
2021/12/29 16:34:52;;;;;;;3.45;1.15;;;8.50;99.90;;;;;;5063371;28;20024;-91
2021/12/29 16:37:24;;;;;;;2.78;1.27;;;8.50;99.90;;;;;;5066476;28;20554;-91
2021/12/29 16:39:50;;;;;;;5.75;1.48;;;8.60;99.90;;;;;;5058617;28;20067;-92
2021/12/29 16:42:16;;;;;;;6.10;2.08;;;8.60;99.90;;;;;;5049270;28;20044;-90
2021/12/29 16:44:43;;;;;;;4.93;1.65;;;8.60;99.90;;;;;;5074219;28;20818;-91
2021/12/29 16:47:09;;;;;;;5.32;1.73;;;;;;;;;;5065525;28;20531;-92
2021/12/29 16:49:36;;;;;;;3.78;1.02;;;8.70;99.90;;;;;;5062932;28;20178;-91
2021/12/29 16:52:04;;;;;;;4.10;1.60;;;9.70;99.90;;;;;;5067528;28;20403;-91
2021/12/29 16:54:30;;;;;;;4.50;2.20;;;8.70;99.90;;;;;;5073627;28;20036;-91
2021/12/29 16:56:58;;;;;;;2.22;1.17;;;8.60;99.90;;;;;;5064887;28;20064;-91
2021/12/29 16:59:24;;;;;;;2.75;1.60;;;10.30;99.90;;;;;;5088617;28;20028;-91
2021/12/29 17:01:51;;;;;;;4.68;1.58;;;8.70;99.90;;;;;;5098432;28;20031;-91
2021/12/29 17:04:17;;;;;;;3.13;1.20;;;8.50;99.90;;;;;;5054228;28;20044;-92
2021/12/29 17:06:43;;;;;;;4.10;1.77;;;8.70;99.90;;;;;;5065797;28;20470;-92
2021/12/29 17:09:10;;;;;;;3.28;1.48;;;8.70;99.90;;;;;;5065565;28;20495;-92
2021/12/29 17:11:35;;;;;;;4.60;1.85;;;8.70;99.90;;;;;;5063076;28;20379;-92
2021/12/29 17:14:01;;;;;;;4.22;1.55;;;8.80;99.90;;;;;;5057951;28;20032;-91
2021/12/29 17:16:27;;;;;;;2.83;1.15;;;8.80;99.90;;;;;;5072801;28;20028;-92
2021/12/29 17:18:53;;;;;;;2.00;0.90;;;8.80;99.90;;;;;;5061039;28;20056;-91
2021/12/29 17:21:19;;;;;;;1.70;1.13;;;8.90;99.90;;;;;;5074545;28;20103;-92
2021/12/29 17:23:45;;;;;;;4.15;1.58;;;9.00;99.90;;;;;;5067907;28;20817;-93
2021/12/29 17:26:11;;;;;;;1.50;0.93;;;9.00;99.90;;;;;;5057668;28;20031;-92
2021/12/29 17:28:38;;;;;;;3.03;1.33;;;9.10;99.90;;;;;;5041445;28;20084;-93
2021/12/29 17:31:04;;;;;;;4.15;1.40;;;;;;;;;;5036052;28;20036;-91
2021/12/29 17:33:33;;;;;;;1.90;1.00;;;9.10;99.90;;;;;;5058847;28;20454;-92
2021/12/29 17:36:00;;;;;;;1.30;0.88;;;9.70;99.90;;;;;;5058985;28;20439;-91
2021/12/29 17:38:26;;;;;;;0.50;0.50;;;9.30;99.90;;;;;;5065144;28;20024;-93
2021/12/29 17:40:52;;;;;;;1.33;0.85;;;9.30;99.90;;;;;;5041592;28;20646;-93
2021/12/29 17:43:17;;;;;;;3.08;1.17;;;9.40;99.90;;;;;;5041284;28;20078;-91
2021/12/29 17:45:45;;;;;;;0.77;0.68;;;9.40;99.90;;;;;;5056632;28;20036;-92
2021/12/29 17:48:13;;;;;;;2.25;0.95;;;9.40;99.90;;;;;;5029372;28;20495;-92
2021/12/29 17:50:44;;;;;;;2.78;1.55;;;9.50;99.90;;;;;;5032073;28;20044;-89
2021/12/29 17:53:10;;;;;;;;;;;9.50;99.90;;;;;;5062437;28;20843;-92
2021/12/29 17:55:36;;;;;;;0.88;0.60;;;9.50;99.90;;;;;;5060340;28;19935;-92
2021/12/29 17:58:06;;;;;;;0.90;0.80;;;9.50;99.90;;;;;;5050907;28;20082;-91
2021/12/29 18:00:32;;;;;;;1.15;0.80;;;9.50;99.90;;;;;;5062801;28;20059;-91
2021/12/29 18:02:58;;;;;;;0.70;0.68;;;9.70;99.90;;;;;;5067766;28;20028;-91
2021/12/29 18:05:24;;;;;;;1.63;1.08;;;9.20;99.90;;;;;;5061715;28;20451;-91
2021/12/29 18:07:50;;;;;;;1.98;0.80;;;9.60;99.90;;;;;;5064879;28;20111;-91
2021/12/29 18:10:17;;;;;;;3.42;1.25;;;9.50;99.90;;;;;;5067820;28;20492;-92
2021/12/29 18:12:44;;;;;;;1.65;0.80;;;9.60;99.90;;;;;;5064551;28;20463;-92
2021/12/29 18:15:10;;;;;;;1.88;0.80;;;;;;;;;;5066270;28;20052;-91
2021/12/29 18:17:36;;;;;;;0.60;0.60;;;9.70;99.90;;;;;;5064876;28;20029;-91
2021/12/29 18:20:04;;;;;;;2.22;1.15;;;9.90;99.90;;;;;;5064477;28;20032;-93
2021/12/29 18:22:30;;;;;;;0.60;0.60;;;9.90;99.90;;;;;;5069811;28;20291;-91
2021/12/29 18:24:56;;;;;;;1.35;0.90;;;9.90;99.90;;;;;;5062170;28;20042;-92
2021/12/29 18:27:22;;;;;;;2.05;0.98;;;10.00;99.90;;;;;;5072443;28;20082;-90
2021/12/29 18:29:48;;;;;;;1.50;0.80;;;9.90;99.90;;;;;;5068442;28;20028;-93
2021/12/29 18:32:13;;;;;;;1.08;0.65;;;10.00;99.90;;;;;;5065831;28;20066;-91
2021/12/29 18:34:39;;;;;;;1.70;0.90;;;10.00;99.90;;;;;;5070106;28;20039;-92
2021/12/29 18:37:06;;;;;;;2.22;1.02;;;10.00;99.90;;;;;;5069548;28;20414;-89
2021/12/29 18:39:32;;;;;;;1.10;0.70;;;10.00;99.90;;;;;;5065554;28;20031;-89
2021/12/29 18:41:57;;;;;;;1.27;0.82;;;10.10;99.90;;;;;;5084144;28;20036;-90
2021/12/29 18:44:26;;;;;;;0.70;0.70;;;10.10;99.90;;;;;;5064094;28;20021;-90
2021/12/29 18:46:56;;;;;;;0.63;0.63;;;10.10;99.90;;;;;;5068383;28;20561;-90
2021/12/29 18:49:23;;;;;;;0.90;0.70;;;10.10;99.90;;;;;;5070847;28;20205;-89
2021/12/29 18:51:49;;;;;;;0.60;0.60;;;10.10;99.90;;;;;;5074958;28;20056;-92
2021/12/29 18:54:15;;;;;;;0.95;0.68;;;10.10;99.90;;;;;;5073321;28;20021;-89
2021/12/29 18:56:41;;;;;;;1.35;1.10;;;10.10;99.90;;;;;;5083947;28;20586;-91
2021/12/29 18:59:07;;;;;;;0.93;0.65;;;10.20;99.90;;;;;;5072879;28;20020;-90
2021/12/29 19:01:34;;;;;;;1.73;1.10;;;10.20;99.90;;;;;;5066618;28;20032;-90
2021/12/29 19:04:02;;;;;;;1.42;0.80;;;10.20;99.90;;;;;;5070528;28;20394;-89
2021/12/29 19:06:28;;;;;;;0.60;0.60;;;10.20;99.90;;;;;;5068586;28;20113;-90
2021/12/29 19:08:54;;;;;;;1.20;0.82;;;10.30;99.90;;;;;;5070438;28;20398;-89
2021/12/29 19:11:24;;;;;;;2.05;0.93;;;10.40;99.90;;;;;;5101413;28;20124;-90
2021/12/29 19:13:49;;;;;;;0.98;0.57;;;10.50;99.90;;;;;;5072186;28;20024;-89
2021/12/29 19:16:15;;;;;;;2.30;0.82;;;10.50;99.90;;;;;;5070498;28;20035;-90
2021/12/29 19:18:44;;;;;;;2.20;0.93;;;10.50;99.90;;;;;;5071715;28;20374;-90
2021/12/29 19:21:10;;;;;;;1.55;0.95;;;;;;;;;;5071347;28;20120;-89
2021/12/29 19:23:36;;;;;;;1.50;0.90;;;10.50;99.90;;;;;;5069667;28;20680;-89
2021/12/29 19:26:02;;;;;;;2.10;0.95;;;10.50;99.90;;;;;;5072994;28;20024;-89
2021/12/29 19:28:28;;;;;;;2.00;1.10;;;10.50;99.90;;;;;;5062625;28;20038;-90
2021/12/29 19:30:55;;;;;;;1.63;0.80;;;10.60;99.90;;;;;;5071137;28;20492;-90
2021/12/29 19:33:21;;;;;;;2.65;1.25;;;10.60;99.90;;;;;;5070673;28;20025;-89
2021/12/29 19:35:49;;;;;;;0.65;0.65;;;10.60;99.90;;;;;;5071082;28;20031;-89
2021/12/29 19:38:17;;;;;;;1.75;1.08;;;10.60;99.90;;;;;;5069168;28;20020;-89
2021/12/29 19:40:45;;;;;;;1.35;0.88;;;10.40;99.90;;;;;;5069497;28;20038;-90
2021/12/29 19:43:12;;;;;;;1.65;1.02;;;10.70;99.90;;;;;;5068430;28;20039;-89
2021/12/29 19:45:37;;;;;;;2.38;0.93;;;10.70;99.90;;;;;;5072276;28;20024;-89
2021/12/29 19:48:04;;;;;;;2.95;0.88;;;10.70;99.90;;;;;;5070057;28;20024;-89
2021/12/29 19:50:35;;;;;;;2.30;1.17;;;10.70;99.90;;;;;;5067871;28;20148;-89
2021/12/29 19:53:04;;;;;;;3.58;1.45;;;10.80;99.90;;;;;;5072883;28;20026;-89
2021/12/29 19:55:35;;;;;;;0.65;0.65;;;10.80;99.90;;;;;;5071998;28;20060;-89
2021/12/29 19:58:01;;;;;;;1.13;0.80;;;11.00;99.90;;;;;;5059039;28;20021;-92
2021/12/29 20:00:31;;;;;;;1.63;1.13;;;10.90;99.90;;;;;;5080430;28;20098;-89
2021/12/29 20:02:57;;;;;;;3.60;1.20;;;10.90;99.90;;;;;;5071519;28;20118;-89
2021/12/29 20:05:24;;;;;;;4.28;1.65;;;11.10;99.90;;;;;;5076260;28;20131;-89
2021/12/29 20:07:52;;;;;;;2.80;1.27;;;11.00;99.90;;;;;;5093872;28;20036;-89
2021/12/29 20:10:19;;;;;;;2.33;1.20;;;11.40;99.90;;;;;;5087031;28;20115;-89
2021/12/29 20:12:46;;;;;;;4.22;1.75;;;11.20;99.90;;;;;;5075466;28;20024;-88
2021/12/29 20:15:15;;;;;;;5.75;2.05;;;11.20;99.90;;;;;;5067618;28;20081;-88
2021/12/29 20:17:41;;;;;;;3.57;1.43;;;11.30;99.90;;;;;;5089975;28;20692;-88
2021/12/29 20:20:11;;;;;;;3.08;1.30;;;11.30;99.90;;;;;;5076877;28;20016;-90
2021/12/29 20:22:37;;;;;;;5.73;2.20;;;;;;;;;;5076818;28;20020;-90
2021/12/29 20:25:05;;;;;;;6.57;2.95;;;11.40;99.90;;;;;;5074507;28;20381;-90
2021/12/29 20:27:34;;;;;;;3.17;1.30;;;11.40;99.90;;;;;;5075318;28;20487;-89
2021/12/29 20:30:01;;;;;;;7.57;2.45;;;11.40;99.90;;;;;;5072071;28;20023;-89
2021/12/29 20:32:27;;;;;;;6.75;2.88;;;11.40;99.90;;;;;;5069554;28;20550;-92
2021/12/29 20:34:53;;;;;;;6.00;2.38;;;11.40;99.90;;;;;;5076260;28;20020;-91
2021/12/29 20:37:19;;;;;;;8.65;3.05;;;;;;;;;;5072938;28;20043;-88
2021/12/29 20:39:46;;;;;;;8.65;2.80;;;11.50;99.90;;;;;;5080293;28;20109;-89
2021/12/29 20:42:13;;;;;;;8.73;2.50;;;11.50;99.90;;;;;;5081506;28;20487;-90
2021/12/29 20:44:39;;;;;;;8.90;3.28;;;11.60;99.90;;;;;;5051316;28;20395;-90
2021/12/29 20:47:06;;;;;;;9.65;4.53;;;11.70;99.90;;;;;;5073140;28;20054;-90
2021/12/29 20:49:33;;;;;;;7.55;2.58;;;11.70;99.90;;;;;;5077669;28;20035;-89
2021/12/29 20:51:59;;;;;;;9.82;4.03;;;11.70;99.90;;;;;;5068943;28;20407;-89
2021/12/29 20:54:25;;;;;;;8.98;3.53;;;11.70;99.90;;;;;;5069867;28;20036;-89
2021/12/29 20:56:53;;;;;;;8.43;4.07;;;11.80;99.90;;;;;;5051170;28;20025;-89
2021/12/29 20:59:19;;;;;;;8.23;3.20;;;11.80;99.90;;;;;;5069052;28;20032;-89
2021/12/29 21:01:45;;;;;;;9.65;2.97;;;11.80;99.90;;;;;;5074936;28;20622;-89
2021/12/29 21:04:11;;;;;;;10.95;4.70;;;11.80;99.90;;;;;;5068468;28;20021;-89
2021/12/29 21:06:37;;;;;;;7.80;3.67;;;11.80;99.90;;;;;;5072740;28;20032;-91
2021/12/29 21:09:04;;;;;;;13.30;5.72;;;11.90;99.90;;;;;;5074197;28;20028;-89
2021/12/29 21:11:30;;;;;;;16.67;4.97;;;11.90;99.90;;;;;;5065287;28;20033;-89
2021/12/29 21:13:55;;;;;;;10.65;3.65;;;11.90;99.90;;;;;;5068544;28;20028;-88
2021/12/29 21:16:21;;;;;;;5.93;3.17;;;11.90;99.90;;;;;;5067952;28;20024;-89
2021/12/29 21:18:47;;;;;;;14.55;4.78;;;12.00;99.90;;;;;;5069855;28;20044;-88
2021/12/29 21:21:14;;;;;;;10.90;3.58;;;12.00;99.90;;;;;;5070525;28;20016;-90
2021/12/29 21:23:40;;;;;;;10.18;3.80;;;;;;;;;;5069488;28;20058;-89
2021/12/29 21:26:06;;;;;;;6.20;3.05;;;12.00;99.90;;;;;;5058338;28;20048;-90
2021/12/29 21:28:32;;;;;;;6.45;2.92;;;12.10;99.90;;;;;;5056111;28;20473;-89